Date,TemperatureHighF,TemperatureAvgF,TemperatureLowF,DewpointHighF,DewpointAvgF,DewpointLowF,HumidityHigh,HumidityAvg,HumidityLow,PressureMaxIn,PressureMinIn,WindSpeedMaxMPH,WindSpeedAvgMPH,GustSpeedMaxMPH,PrecipitationSumIn
2013-1-1,31,22,7,-100,-100,-100,0,0,100,0.00,40.00,0,-999,0,0.00
2013-1-2,21,10,-2,-100,-100,-100,0,0,100,0.00,40.00,0,-999,0,0.00
2013-1-3,18,3,-11,-100,-100,-100,0,0,100,0.00,40.00,0,-999,0,0.00
2013-1-4,34,20,-2,-100,-100,-100,0,0,100,0.00,40.00,0,-999,0,0.00
2013-1-5,33,27,12,-100,-100,-100,0,0,100,0.00,40.00,0,-999,0,0.00
2013-1-6,33,23,10,-100,-100,-100,0,0,100,0.00,40.00,0,-999,0,0.00
2013-1-7,30,24,7,-100,-100,-100,0,0,100,0.00,40.00,0,-999,0,0.00
2013-1-8,39,18,3,-100,-100,-100,0,0,100,0.00,40.00,0,-999,0,0.00
2013-1-9,39,24,10,-100,-100,-100,0,0,100,0.00,40.00,0,-999,0,0.00
2013-1-10,41,36,25,-100,-100,-100,0,0,100,0.00,40.00,0,-999,0,0.00
2013-1-11,37,28,17,-100,-100,-100,0,0,100,0.00,40.00,0,-999,0,0.08
2013-1-12,40,35,33,-100,-100,-100,0,0,100,0.00,40.00,0,-999,0,0.09
2013-1-13,39,36,34,-100,-100,-100,0,0,100,0.00,40.00,0,-999,0,0.01
2013-1-14,52,39,31,-100,-100,-100,0,0,100,0.00,40.00,0,-999,0,0.01
2013-1-15,38,31,25,-100,-100,-100,0,0,100,0.00,40.00,0,-999,0,0.01
2013-1-16,30,29,27,-100,-100,-100,0,0,100,0.00,40.00,0,-999,0,0.16
2013-1-17,36,26,18,-100,-100,-100,0,0,100,0.00,40.00,0,-999,0,0.01
2013-1-18,18,11,4,-100,-100,-100,0,0,100,0.00,40.00,0,-999,0,0.01
2013-1-19,34,24,8,-100,-100,-100,0,0,100,0.00,40.00,0,-999,0,0.00
2013-1-20,41,31,21,-100,-100,-100,0,0,100,0.00,40.00,0,-999,0,0.00
2013-1-21,24,18,5,-100,-100,-100,0,0,100,0.00,40.00,0,-999,0,0.00
2013-1-22,21,14,5,-100,-100,-100,0,0,100,0.00,40.00,0,-999,0,0.00
2013-1-23,7,1,-4,-100,-100,-100,0,0,100,0.00,40.00,0,-999,0,0.00
2013-1-24,11,3,-10,-100,-100,-100,0,0,100,0.00,40.00,0,-999,0,0.00
2013-1-25,16,10,3,-100,-100,-100,0,0,100,0.00,40.00,0,-999,0,0.00
2013-1-26,20,12,1,-100,-100,-100,0,0,100,0.00,40.00,0,-999,0,0.00
2013-1-27,23,15,5,-100,-100,-100,0,0,100,0.00,40.00,0,-999,0,0.00
2013-1-28,20,13,2,-100,-100,-100,0,0,100,0.00,40.00,0,-999,0,0.09
2013-1-29,32,23,8,-100,-100,-100,0,0,100,0.00,40.00,0,-999,0,0.06
2013-1-30,37,34,31,-100,-100,-100,0,0,100,0.00,40.00,0,-999,0,0.10
2013-1-31,52,36,27,-100,-100,-100,0,0,100,0.00,40.00,0,-999,0,0.54
2013-2-1,27,22,16,-100,-100,-100,0,0,100,0.00,40.00,0,-999,0,0.04
2013-2-2,23,17,11,-100,-100,-100,0,0,100,0.00,40.00,0,-999,0,0.00
2013-2-3,28,22,12,-100,-100,-100,0,0,100,0.00,40.00,0,-999,0,0.00
2013-2-4,27,21,15,-100,-100,-100,0,0,100,0.00,40.00,0,-999,0,0.00
2013-2-5,25,14,3,-100,-100,-100,0,0,100,0.00,40.00,0,-999,0,0.00
2013-2-6,33,23,16,-100,-100,-100,0,0,100,0.00,40.00,0,-999,0,0.00
2013-2-7,21,16,10,-100,-100,-100,0,0,100,0.00,40.00,0,-999,0,0.00
2013-2-8,19,16,13,-100,-100,-100,0,0,100,0.00,40.00,0,-999,0,0.03
2013-2-9,20,17,8,-100,-100,-100,0,0,100,0.00,40.00,0,-999,0,0.18
2013-2-10,29,17,-12,-100,-100,-100,0,0,100,0.00,40.00,0,-999,0,0.01
2013-2-11,28,18,3,-100,-100,-100,0,0,100,0.00,40.00,0,-999,0,0.02
2013-2-12,39,33,28,-100,-100,-100,0,0,100,0.00,40.00,0,-999,0,0.02
2013-2-13,39,32,25,-100,-100,-100,0,0,100,0.00,40.00,0,-999,0,0.00
2013-2-14,38,28,20,-100,-100,-100,0,0,100,0.00,40.00,0,-999,0,0.00
2013-2-15,47,31,18,-100,-100,-100,0,0,100,0.00,40.00,0,-999,0,0.00
2013-2-16,38,32,28,-100,-100,-100,0,0,100,0.00,40.00,0,-999,0,0.00
2013-2-17,28,21,14,-100,-100,-100,0,0,100,0.00,40.00,0,-999,0,0.00
2013-2-18,27,18,10,-100,-100,-100,0,0,100,0.00,40.00,0,-999,0,0.00
2013-2-19,41,30,8,-100,-100,-100,0,0,100,0.00,40.00,0,-999,0,0.07
2013-2-20,33,29,22,-100,-100,-100,0,0,100,0.00,40.00,0,-999,0,0.12
2013-2-21,26,22,17,-100,-100,-100,0,0,100,0.00,40.00,0,-999,0,0.00
2013-2-22,38,27,6,-100,-100,-100,0,0,100,0.00,40.00,0,-999,0,0.00
2013-2-23,34,30,26,-100,-100,-100,0,0,100,0.00,40.00,0,-999,0,0.08
2013-2-24,34,32,30,-100,-100,-100,0,0,100,0.00,40.00,0,-999,0,0.20
2013-2-25,38,32,23,-100,-100,-100,0,0,100,0.00,40.00,0,-999,0,0.06
2013-2-26,39,34,31,-100,-100,-100,0,0,100,0.00,40.00,0,-999,0,0.00
2013-2-27,36,34,31,-100,-100,-100,0,0,100,0.00,40.00,0,-999,0,0.10
2013-2-28,44,35,30,-100,-100,-100,0,0,100,0.00,40.00,0,-999,0,0.06
2013-3-1,37,34,31,-100,-100,-100,0,0,100,0.00,40.00,0,-999,0,0.01
2013-3-2,43,34,28,-100,-100,-100,0,0,100,0.00,40.00,0,-999,0,0.01
2013-3-3,40,32,28,-100,-100,-100,0,0,100,0.00,40.00,0,-999,0,0.01
2013-3-4,36,30,26,-100,-100,-100,0,0,100,0.00,40.00,0,-999,0,0.00
2013-3-5,44,33,21,-100,-100,-100,0,0,100,0.00,40.00,0,-999,0,0.00
2013-3-6,36,34,32,-100,-100,-100,0,0,100,0.00,40.00,0,-999,0,0.01
2013-3-7,34,32,30,-100,-100,-100,0,0,100,0.00,40.00,0,-999,0,0.01
2013-3-8,47,39,31,-100,-100,-100,0,0,100,0.00,40.00,0,-999,0,0.01
2013-3-9,56,36,20,-100,-100,-100,0,0,100,0.00,40.00,0,-999,0,0.01
2013-3-10,47,34,20,-100,-100,-100,0,0,100,0.00,40.00,0,-999,0,0.00
2013-3-11,49,38,29,-100,-100,-100,0,0,100,0.00,40.00,0,-999,0,0.00
2013-3-12,49,42,32,-100,-100,-100,0,0,100,0.00,40.00,0,-999,0,0.30
2013-3-13,47,39,28,-100,-100,-100,0,0,100,0.00,40.00,0,-999,0,0.14
2013-3-14,36,28,19,-100,-100,-100,0,0,100,0.00,40.00,0,-999,0,0.00
2013-3-15,37,25,16,-100,-100,-100,0,0,100,0.00,40.00,0,-999,0,0.04
2013-3-16,32,27,18,-100,-100,-100,0,0,100,0.00,40.00,0,-999,0,0.04
2013-3-17,29,21,11,-100,-100,-100,0,0,100,0.00,40.00,0,-999,0,0.00
2013-3-18,35,21,4,-100,-100,-100,0,0,100,0.00,40.00,0,-999,0,0.00
2013-3-19,31,28,24,-100,-100,-100,0,0,100,0.00,40.00,0,-999,0,0.14
2013-3-20,34,27,18,-100,-100,-100,0,0,100,0.00,40.00,0,-999,0,0.02
2013-3-21,38,25,8,-100,-100,-100,0,0,100,0.00,40.00,0,-999,0,0.00
2013-3-22,37,28,17,-100,-100,-100,0,0,100,0.00,40.00,0,-999,0,0.00
2013-3-23,39,32,25,-100,-100,-100,0,0,100,0.00,40.00,0,-999,0,0.00
2013-3-24,45,36,27,-100,-100,-100,0,0,100,0.00,40.00,0,-999,0,0.00
2013-3-25,42,33,23,-100,-100,-100,0,0,100,0.00,40.00,0,-999,0,0.00
2013-3-26,49,38,28,-100,-100,-100,0,0,100,0.00,40.00,0,-999,0,0.00
2013-3-27,51,37,23,-100,-100,-100,0,0,100,0.00,40.00,0,-999,0,0.00
2013-3-28,46,38,30,-100,-100,-100,0,0,100,0.00,40.00,0,-999,0,0.00
2013-3-29,52,40,30,-100,-100,-100,0,0,100,0.00,40.00,0,-999,0,0.00
2013-3-30,53,39,28,-100,-100,-100,0,0,100,0.00,40.00,0,-999,0,0.00
2013-3-31,55,39,21,-100,-100,-100,0,0,100,0.00,40.00,0,-999,0,0.01
2013-4-1,53,39,32,-100,-100,-100,0,0,100,0.00,40.00,0,-999,0,0.36
2013-4-2,36,30,23,-100,-100,-100,0,0,100,0.00,40.00,0,-999,0,0.01
2013-4-3,42,33,26,-100,-100,-100,0,0,100,0.00,40.00,0,-999,0,0.00
2013-4-4,53,39,30,-100,-100,-100,0,0,100,0.00,40.00,0,-999,0,0.00
2013-4-5,54,39,29,-100,-100,-100,0,0,100,0.00,40.00,0,-999,0,0.00
2013-4-6,40,32,25,-100,-100,-100,0,0,100,0.00,40.00,0,-999,0,0.00
2013-4-7,54,38,24,-100,-100,-100,0,0,100,0.00,40.00,0,-999,0,0.00
2013-4-8,59,44,30,-100,-100,-100,0,0,100,0.00,40.00,0,-999,0,0.00
2013-4-9,54,43,39,-100,-100,-100,0,0,100,0.00,40.00,0,-999,0,0.22
2013-4-10,56,46,40,-100,-100,-100,0,0,100,0.00,40.00,0,-999,0,0.58
2013-4-11,48,44,39,-100,-100,-100,0,0,100,0.00,40.00,0,-999,0,0.30
2013-4-12,39,34,31,-100,-100,-100,0,0,100,0.00,40.00,0,-999,0,0.28
2013-4-13,50,39,30,-100,-100,-100,0,0,100,0.00,40.00,0,-999,0,0.02
2013-4-14,50,41,32,-100,-100,-100,0,0,100,0.00,40.00,0,-999,0,0.01
2013-4-15,56,42,25,-100,-100,-100,0,0,100,0.00,40.00,0,-999,0,0.01
2013-4-16,61,46,30,-100,-100,-100,0,0,100,0.00,40.00,0,-999,0,0.04
2013-4-17,60,50,35,-100,-100,-100,0,0,100,0.00,40.00,0,-999,0,0.02
2013-4-18,56,44,28,-100,-100,-100,0,0,100,0.00,40.00,0,-999,0,0.00
2013-4-19,73,60,48,-100,-100,-100,0,0,100,0.00,40.00,0,-999,0,0.12
2013-4-20,63,49,40,-100,-100,-100,0,0,100,0.00,40.00,0,-999,0,0.30
2013-4-21,51,40,30,-100,-100,-100,0,0,100,0.00,40.00,0,-999,0,0.01
2013-4-22,53,39,26,-100,-100,-100,0,0,100,0.00,40.00,0,-999,0,0.00
2013-4-23,42,36,27,-100,-100,-100,0,0,100,0.00,40.00,0,-999,0,0.00
2013-4-24,72,56,41,-100,-100,-100,0,0,100,0.00,40.00,0,-999,0,0.00
2013-4-25,59,53,35,-100,-100,-100,0,0,100,0.00,40.00,0,-999,0,0.00
2013-4-26,59,44,28,-100,-100,-100,0,0,100,0.00,40.00,0,-999,0,0.00
2013-4-27,64,49,31,-100,-100,-100,0,0,100,0.00,40.00,0,-999,0,0.00
2013-4-28,68,51,31,-100,-100,-100,0,0,100,0.00,40.00,0,-999,0,0.00
2013-4-29,69,53,35,-100,-100,-100,0,0,100,0.00,40.00,0,-999,0,0.00
2013-4-30,71,57,44,-100,-100,-100,0,0,100,0.00,40.00,0,-999,0,0.00
2013-5-1,75,55,32,-100,-100,-100,0,0,100,0.00,40.00,0,-999,0,0.00
2013-5-2,78,54,36,-100,-100,-100,0,0,100,0.00,40.00,0,-999,0,0.00
2013-5-3,67,51,32,-100,-100,-100,0,0,100,0.00,40.00,0,-999,0,0.00
2013-5-4,71,53,36,-100,-100,-100,0,0,100,0.00,40.00,0,-999,0,0.00
2013-5-5,70,51,31,-100,-100,-100,0,0,100,0.00,40.00,0,-999,0,0.00
2013-5-6,74,54,32,-100,-100,-100,0,0,100,0.00,40.00,0,-999,0,0.00
2013-5-7,80,60,38,-100,-100,-100,0,0,100,0.00,40.00,0,-999,0,0.00
2013-5-8,75,62,46,-100,-100,-100,0,0,100,0.00,40.00,0,-999,0,0.11
2013-5-9,67,60,54,-100,-100,-100,0,0,100,0.00,40.00,0,-999,0,0.23
2013-5-10,75,63,52,-100,-100,-100,0,0,100,0.00,40.00,0,-999,0,0.01
2013-5-11,65,60,55,-100,-100,-100,0,0,100,0.00,40.00,0,-999,0,0.29
2013-5-12,67,58,48,-100,-100,-100,0,0,100,0.00,40.00,0,-999,0,0.06
2013-5-13,53,46,37,-100,-100,-100,0,0,100,0.00,40.00,0,-999,0,0.01
2013-5-14,59,47,34,-100,-100,-100,0,0,100,0.00,40.00,0,-999,0,0.00
2013-5-15,65,46,29,-100,-100,-100,0,0,100,0.00,40.00,0,-999,0,0.10
2013-5-16,75,60,46,-100,-100,-100,0,0,100,0.00,40.00,0,-999,0,0.03
2013-5-17,65,55,43,-100,-100,-100,0,0,100,0.00,40.00,0,-999,0,0.00
2013-5-18,70,55,38,-100,-100,-100,0,0,100,0.00,40.00,0,-999,0,0.00
2013-5-19,64,52,43,-100,-100,-100,0,0,100,0.00,40.00,0,-999,0,0.15
2013-5-20,70,59,53,-100,-100,-100,0,0,100,0.00,40.00,0,-999,0,0.39
2013-5-21,61,55,50,-100,-100,-100,0,0,100,0.00,40.00,0,-999,0,0.50
2013-5-22,60,54,50,-100,-100,-100,0,0,100,0.00,40.00,0,-999,0,0.77
2013-5-23,66,58,51,-100,-100,-100,0,0,100,0.00,40.00,0,-999,0,0.25
2013-5-24,67,61,50,-100,-100,-100,0,0,100,0.00,40.00,0,-999,0,0.88
2013-5-25,50,47,40,-100,-100,-100,0,0,100,0.00,40.00,0,-999,0,0.74
2013-5-26,54,46,39,-100,-100,-100,0,0,100,0.00,40.00,0,-999,0,0.59
2013-5-27,66,50,32,-100,-100,-100,0,0,100,0.00,40.00,0,-999,0,0.01
2013-5-28,71,54,34,-100,-100,-100,0,0,100,0.00,40.00,0,-999,0,0.00
2013-5-29,57,52,47,-100,-100,-100,0,0,100,0.00,40.00,0,-999,0,0.16
2013-5-30,83,68,56,-100,-100,-100,0,0,100,0.00,40.00,0,-999,0,0.01
2013-5-31,90,72,55,-100,-100,-100,0,0,100,0.00,40.00,0,-999,0,0.00
2013-6-1,93,74,59,-100,-100,-100,0,0,100,0.00,40.00,0,-999,0,0.00
2013-6-2,91,73,63,-100,-100,-100,0,0,100,0.00,40.00,0,-999,0,0.75
2013-6-3,76,67,60,-100,-100,-100,0,0,100,0.00,40.00,0,-999,0,0.04
2013-6-4,63,55,46,-100,-100,-100,0,0,100,0.00,40.00,0,-999,0,0.01
2013-6-5,72,57,41,-100,-100,-100,0,0,100,0.00,40.00,0,-999,0,0.00
2013-6-6,74,61,50,-100,-100,-100,0,0,100,0.00,40.00,0,-999,0,0.00
2013-6-7,59,54,52,-100,-100,-100,0,0,100,0.00,40.00,0,-999,0,0.48
2013-6-8,72,60,52,-100,-100,-100,0,0,100,0.00,40.00,0,-999,0,1.38
2013-6-9,75,63,49,-100,-100,-100,0,0,100,0.00,40.00,0,-999,0,0.01
2013-6-10,70,59,46,-100,-100,-100,0,0,100,0.00,40.00,0,-999,0,0.10
2013-6-11,59,56,54,-100,-100,-100,0,0,100,0.00,40.00,0,-999,0,0.82
2013-6-12,64,58,54,-100,-100,-100,0,0,100,0.00,40.00,0,-999,0,0.22
2013-6-13,69,58,44,-100,-100,-100,0,0,100,0.00,40.00,0,-999,0,0.05
2013-6-14,74,62,53,-100,-100,-100,0,0,100,0.00,40.00,0,-999,0,0.04
2013-6-15,74,62,45,-100,-100,-100,0,0,100,0.00,40.00,0,-999,0,0.00
2013-6-16,73,60,45,-100,-100,-100,0,0,100,0.00,40.00,0,-999,0,0.01
2013-6-17,80,64,50,-100,-100,-100,0,0,100,0.00,40.00,0,-999,0,0.01
2013-6-18,64,58,51,-100,-100,-100,0,0,100,0.00,40.00,0,-999,0,0.02
2013-6-19,73,64,45,-100,-100,-100,0,0,100,0.00,40.00,0,-999,0,0.01
2013-6-20,74,64,41,-100,-100,-100,0,0,100,0.00,40.00,0,-999,0,0.01
2013-6-22,79,74,66,-100,-100,-100,0,0,100,0.00,40.00,0,-999,0,0.02
2013-6-23,83,70,62,-100,-100,-100,0,0,100,0.00,40.00,0,-999,0,0.30
2013-6-24,88,73,62,-100,-100,-100,0,0,100,0.00,40.00,0,-999,0,0.19
2013-6-25,88,74,63,-100,-100,-100,0,0,100,0.00,40.00,0,-999,0,0.10
2013-6-26,73,68,62,-100,-100,-100,0,0,100,0.00,40.00,0,-999,0,0.28
2013-6-27,72,65,60,-100,-100,-100,0,0,100,0.00,40.00,0,-999,0,0.02
2013-6-28,65,62,59,-100,-100,-100,0,0,100,0.00,40.00,0,-999,0,0.58
2013-6-29,81,69,62,-100,-100,-100,0,0,100,0.00,40.00,0,-999,0,0.72
2013-6-30,82,71,62,-100,-100,-100,0,0,100,0.00,40.00,0,-999,0,0.20
2013-7-1,78,71,66,-100,-100,-100,0,0,100,0.00,40.00,0,-999,0,0.22
2013-7-2,72,66,61,-100,-100,-100,0,0,100,0.00,40.00,0,-999,0,0.49
2013-7-3,84,72,61,-100,-100,-100,0,0,100,0.00,40.00,0,-999,0,0.57
2013-7-4,89,78,65,-100,-100,-100,0,0,100,0.00,40.00,0,-999,0,0.01
2013-7-5,89,78,67,-100,-100,-100,0,0,100,0.00,40.00,0,-999,0,0.00
2013-7-6,85,76,67,-100,-100,-100,0,0,100,0.00,40.00,0,-999,0,0.00
2013-7-7,83,72,62,-100,-100,-100,0,0,100,0.00,40.00,0,-999,0,0.00
2013-7-8,80,71,65,-100,-100,-100,0,0,100,0.00,40.00,0,-999,0,1.36
2013-7-9,73,68,65,-100,-100,-100,0,0,100,0.00,40.00,0,-999,0,1.06
2013-7-10,71,67,66,-100,-100,-100,0,0,100,0.00,40.00,0,-999,0,0.87
2013-7-11,81,71,66,-100,-100,-100,0,0,100,0.00,40.00,0,-999,0,0.48
2013-7-12,79,67,57,-100,-100,-100,0,0,100,0.00,40.00,0,-999,0,0.00
2013-7-13,78,69,56,-100,-100,-100,0,0,100,0.00,40.00,0,-999,0,0.00
2013-7-14,83,74,64,-100,-100,-100,0,0,100,0.00,40.00,0,-999,0,0.00
2013-7-15,89,75,62,-100,-100,-100,0,0,100,0.00,40.00,0,-999,0,0.00
2013-7-16,89,78,62,-100,-100,-100,0,0,100,0.00,40.00,0,-999,0,0.00
2013-7-17,92,76,63,-100,-100,-100,0,0,100,0.00,40.00,0,-999,0,0.43
2013-7-18,87,75,66,-100,-100,-100,0,0,100,0.00,40.00,0,-999,0,0.79
2013-7-19,90,78,67,-100,-100,-100,0,0,100,0.00,40.00,0,-999,0,0.02
2013-7-20,84,74,66,-100,-100,-100,0,0,100,0.00,40.00,0,-999,0,0.16
2013-7-21,80,70,58,-100,-100,-100,0,0,100,0.00,40.00,0,-999,0,0.12
2013-7-22,72,66,58,-100,-100,-100,0,0,100,0.00,40.00,0,-999,0,0.02
2013-7-23,69,65,62,-100,-100,-100,0,0,100,0.00,40.00,0,-999,0,2.41
2013-7-24,78,67,54,-100,-100,-100,0,0,100,0.00,40.00,0,-999,0,0.01
2013-7-25,70,60,47,-100,-100,-100,0,0,100,0.00,40.00,0,-999,0,0.00
2013-7-26,72,65,60,-100,-100,-100,0,0,100,0.00,40.00,0,-999,0,0.26
2013-7-27,82,69,54,-100,-100,-100,0,0,100,0.00,40.00,0,-999,0,0.02
2013-7-28,79,68,56,-100,-100,-100,0,0,100,0.00,40.00,0,-999,0,0.05
2013-7-29,79,68,61,-100,-100,-100,0,0,100,0.00,40.00,0,-999,0,0.66
2013-7-30,76,65,56,-100,-100,-100,0,0,100,0.00,40.00,0,-999,0,0.02
2013-7-31,79,66,51,-100,-100,-100,0,0,100,0.00,40.00,0,-999,0,0.01
2013-8-1,81,64,54,-100,-100,-100,0,0,100,0.00,40.00,0,-999,0,0.96
2013-8-2,79,68,61,-100,-100,-100,0,0,100,0.00,40.00,0,-999,0,1.45
2013-8-3,76,64,54,-100,-100,-100,0,0,100,0.00,40.00,0,-999,0,0.07
2013-8-4,75,62,51,-100,-100,-100,0,0,100,0.00,40.00,0,-999,0,0.01
2013-8-5,71,60,50,-100,-100,-100,0,0,100,0.00,40.00,0,-999,0,0.00
2013-8-6,75,60,43,-100,-100,-100,0,0,100,0.00,40.00,0,-999,0,0.00
2013-8-7,77,63,48,-100,-100,-100,0,0,100,0.00,40.00,0,-999,0,0.00
2013-8-8,80,68,61,-100,-100,-100,0,0,100,0.00,40.00,0,-999,0,0.03
2013-8-9,72,70,65,-100,-100,-100,0,0,100,0.00,40.00,0,-999,0,0.82
2013-8-10,76,66,55,-100,-100,-100,0,0,100,0.00,40.00,0,-999,0,0.01
2013-8-11,75,60,46,-100,-100,-100,0,0,100,0.00,40.00,0,-999,0,0.00
2013-8-12,79,64,51,-100,-100,-100,0,0,100,0.00,40.00,0,-999,0,0.00
2013-8-13,68,62,54,-100,-100,-100,0,0,100,0.00,40.00,0,-999,0,0.67
2013-8-14,71,63,55,-100,-100,-100,0,0,100,0.00,40.00,0,-999,0,0.01
2013-8-15,72,61,47,-100,-100,-100,0,0,100,0.00,40.00,0,-999,0,0.00
2013-8-16,75,61,47,-100,-100,-100,0,0,100,0.00,40.00,0,-999,0,0.00
2013-8-17,78,63,49,-100,-100,-100,0,0,100,0.00,40.00,0,-999,0,0.00
2013-8-18,74,63,50,-100,-100,-100,0,0,100,0.00,40.00,0,-999,0,0.00
2013-8-19,80,65,52,-100,-100,-100,0,0,100,0.00,40.00,0,-999,0,0.00
2013-8-20,83,69,54,-100,-100,-100,0,0,100,0.00,40.00,0,-999,0,0.00
2013-8-21,84,69,56,-100,-100,-100,0,0,100,0.00,40.00,0,-999,0,0.00
2013-8-22,85,72,57,-100,-100,-100,0,0,100,0.00,40.00,0,-999,0,0.00
2013-8-23,77,67,57,-100,-100,-100,0,0,100,0.00,40.00,0,-999,0,0.00
2013-8-24,75,60,44,-100,-100,-100,0,0,100,0.00,40.00,0,-999,0,0.00
2013-8-25,78,62,43,-100,-100,-100,0,0,100,0.00,40.00,0,-999,0,0.00
2013-8-26,74,66,59,-100,-100,-100,0,0,100,0.00,40.00,0,-999,0,0.05
2013-8-27,80,69,60,-100,-100,-100,0,0,100,0.00,40.00,0,-999,0,0.01
2013-8-28,82,75,66,-100,-100,-100,0,0,100,0.00,40.00,0,-999,0,0.45
2013-8-29,66,64,62,-100,-100,-100,0,0,100,0.00,40.00,0,-999,0,0.46
2013-8-30,80,69,60,-100,-100,-100,0,0,100,0.00,40.00,0,-999,0,0.02
2013-8-31,77,70,65,-100,-100,-100,0,0,100,0.00,40.00,0,-999,0,0.87
2013-9-1,80,73,67,-100,-100,-100,0,0,100,0.00,40.00,0,-999,0,0.86
2013-9-2,71,69,66,-100,-100,-100,0,0,100,0.00,40.00,0,-999,0,1.71
2013-9-3,73,67,60,-100,-100,-100,0,0,100,0.00,40.00,0,-999,0,0.09
2013-9-4,74,67,55,-100,-100,-100,0,0,100,0.00,40.00,0,-999,0,0.00
2013-9-5,67,59,44,-100,-100,-100,0,0,100,0.00,40.00,0,-999,0,0.01
2013-9-6,65,51,37,-100,-100,-100,0,0,100,0.00,40.00,0,-999,0,0.01
2013-9-7,72,58,46,-100,-100,-100,0,0,100,0.00,40.00,0,-999,0,0.00
2013-9-8,65,58,43,-100,-100,-100,0,0,100,0.00,40.00,0,-999,0,0.00
2013-9-9,66,55,36,-100,-100,-100,0,0,100,0.00,40.00,0,-999,0,0.00
2013-9-10,65,57,46,-100,-100,-100,0,0,100,0.00,40.00,0,-999,0,0.12
2013-9-11,88,73,63,-100,-100,-100,0,0,100,0.00,40.00,0,-999,0,0.16
2013-9-12,74,69,65,-100,-100,-100,0,0,100,0.00,40.00,0,-999,0,0.64
2013-9-13,68,64,54,-100,-100,-100,0,0,100,0.00,40.00,0,-999,0,1.22
2013-9-14,65,56,48,-100,-100,-100,0,0,100,0.00,40.00,0,-999,0,0.12
2013-9-15,67,53,39,-100,-100,-100,0,0,100,0.00,40.00,0,-999,0,0.12
2013-9-16,61,54,41,-100,-100,-100,0,0,100,0.00,40.00,0,-999,0,0.04
2013-9-17,61,47,32,-100,-100,-100,0,0,100,0.00,40.00,0,-999,0,0.01
2013-9-18,47,39,36,-100,-100,-100,0,0,100,0.00,40.00,0,-999,0,0.00
2013-9-19,72,57,40,-100,-100,-100,0,0,100,0.00,40.00,0,-999,0,0.00
2013-9-20,74,62,44,-100,-100,-100,0,0,100,0.00,40.00,0,-999,0,0.00
2013-9-21,71,60,45,-100,-100,-100,0,0,100,0.00,40.00,0,-999,0,0.00
2013-9-22,67,61,50,-100,-100,-100,0,0,100,0.00,40.00,0,-999,0,0.39
2013-9-23,55,50,42,-100,-100,-100,0,0,100,0.00,40.00,0,-999,0,0.01
2013-9-24,60,54,48,-100,-100,-100,0,0,100,0.00,40.00,0,-999,0,0.00
2013-9-25,61,53,40,-100,-100,-100,0,0,100,0.00,40.00,0,-999,0,0.00
2013-9-26,65,51,35,-100,-100,-100,0,0,100,0.00,40.00,0,-999,0,0.00
2013-9-27,66,56,47,-100,-100,-100,0,0,100,0.00,40.00,0,-999,0,0.00
2013-9-28,71,58,42,-100,-100,-100,0,0,100,0.00,40.00,0,-999,0,0.00
2013-9-29,67,54,40,-100,-100,-100,0,0,100,0.00,40.00,0,-999,0,0.00
2013-9-30,67,52,39,-100,-100,-100,0,0,100,0.00,40.00,0,-999,0,0.00
2013-10-1,62,54,45,-100,-100,-100,0,0,100,0.00,40.00,0,-999,0,0.00
2013-10-2,75,64,46,-100,-100,-100,0,0,100,0.00,40.00,0,-999,0,0.00
2013-10-3,72,62,47,-100,-100,-100,0,0,100,0.00,40.00,0,-999,0,0.00
2013-10-4,66,54,40,-100,-100,-100,0,0,100,0.00,40.00,0,-999,0,0.00
2013-10-5,63,57,53,-100,-100,-100,0,0,100,0.00,40.00,0,-999,0,0.00
2013-10-6,54,51,47,-100,-100,-100,0,0,100,0.00,40.00,0,-999,0,0.07
2013-10-7,67,54,48,-100,-100,-100,0,0,100,0.00,40.00,0,-999,0,0.61
2013-10-8,59,52,37,-100,-100,-100,0,0,100,0.00,40.00,0,-999,0,0.42
2013-10-9,60,44,30,-100,-100,-100,0,0,100,0.00,40.00,0,-999,0,0.00
2013-10-10,62,48,34,-100,-100,-100,0,0,100,0.00,40.00,0,-999,0,0.00
2013-10-11,67,51,42,-100,-100,-100,0,0,100,0.00,40.00,0,-999,0,0.00
2013-10-12,57,54,42,-100,-100,-100,0,0,100,0.00,40.00,0,-999,0,0.00
2013-10-13,55,50,39,-100,-100,-100,0,0,100,0.00,40.00,0,-999,0,0.00
2013-10-14,64,53,41,-100,-100,-100,0,0,100,0.00,40.00,0,-999,0,0.00
2013-10-15,63,56,50,-100,-100,-100,0,0,100,0.00,40.00,0,-999,0,0.00
2013-10-16,61,55,49,-100,-100,-100,0,0,100,0.00,40.00,0,-999,0,0.00
2013-10-17,69,56,47,-100,-100,-100,0,0,100,0.00,40.00,0,-999,0,0.00
2013-10-18,63,55,46,-100,-100,-100,0,0,100,0.00,40.00,0,-999,0,0.32
2013-10-19,62,57,52,-100,-100,-100,0,0,100,0.00,40.00,0,-999,0,0.00
2013-10-20,59,53,44,-100,-100,-100,0,0,100,0.00,40.00,0,-999,0,0.00
2013-10-21,60,51,31,-100,-100,-100,0,0,100,0.00,40.00,0,-999,0,0.00
2013-10-22,53,46,38,-100,-100,-100,0,0,100,0.00,40.00,0,-999,0,0.04
2013-10-23,52,41,33,-100,-100,-100,0,0,100,0.00,40.00,0,-999,0,0.03
2013-10-24,48,43,35,-100,-100,-100,0,0,100,0.00,40.00,0,-999,0,0.00
2013-10-25,43,36,31,-100,-100,-100,0,0,100,0.00,40.00,0,-999,0,0.00
2013-10-26,47,38,27,-100,-100,-100,0,0,100,0.00,40.00,0,-999,0,0.00
2013-10-27,52,42,31,-100,-100,-100,0,0,100,0.00,40.00,0,-999,0,0.00
2013-10-28,53,39,28,-100,-100,-100,0,0,100,0.00,40.00,0,-999,0,0.00
2013-10-29,44,30,20,-100,-100,-100,0,0,100,0.00,40.00,0,-999,0,0.00
2013-10-30,47,34,25,-100,-100,-100,0,0,100,0.00,40.00,0,-999,0,0.00
2013-10-31,52,37,28,-100,-100,-100,0,0,100,0.00,40.00,0,-999,0,0.26
2013-11-1,64,59,52,-100,-100,-100,0,0,100,0.00,40.00,0,-999,0,0.59
2013-11-2,60,52,38,-100,-100,-100,0,0,100,0.00,40.00,0,-999,0,0.04
2013-11-3,44,38,28,-100,-100,-100,0,0,100,0.00,40.00,0,-999,0,0.04
2013-11-4,40,28,19,-100,-100,-100,0,0,100,0.00,40.00,0,-999,0,0.00
2013-11-5,44,31,21,-100,-100,-100,0,0,100,0.00,40.00,0,-999,0,0.00
2013-11-6,54,41,30,-100,-100,-100,0,0,100,0.00,40.00,0,-999,0,0.00
2013-11-7,54,46,38,-100,-100,-100,0,0,100,0.00,40.00,0,-999,0,0.09
2013-11-8,43,36,28,-100,-100,-100,0,0,100,0.00,40.00,0,-999,0,0.05
2013-11-9,41,36,33,-100,-100,-100,0,0,100,0.00,40.00,0,-999,0,0.00
2013-11-10,40,35,33,-100,-100,-100,0,0,100,0.00,40.00,0,-999,0,0.06
2013-11-11,43,38,36,-100,-100,-100,0,0,100,0.00,40.00,0,-999,0,0.01
2013-11-12,37,31,27,-100,-100,-100,0,0,100,0.00,40.00,0,-999,0,0.00
2013-11-13,30,25,17,-100,-100,-100,0,0,100,0.00,40.00,0,-999,0,0.00
2013-11-14,44,32,24,-100,-100,-100,0,0,100,0.00,40.00,0,-999,0,0.00
2013-11-15,49,32,24,-100,-100,-100,0,0,100,0.00,40.00,0,-999,0,0.00
2013-11-16,54,36,27,-100,-100,-100,0,0,100,0.00,40.00,0,-999,0,0.00
2013-11-17,42,35,26,-100,-100,-100,0,0,100,0.00,40.00,0,-999,0,0.17
2013-11-18,58,51,42,-100,-100,-100,0,0,100,0.00,40.00,0,-999,0,0.35
2013-11-19,42,35,30,-100,-100,-100,0,0,100,0.00,40.00,0,-999,0,0.01
2013-11-20,38,28,20,-100,-100,-100,0,0,100,0.00,40.00,0,-999,0,0.00
2013-11-21,41,27,16,-100,-100,-100,0,0,100,0.00,40.00,0,-999,0,0.00
2013-11-22,37,33,26,-100,-100,-100,0,0,100,0.00,40.00,0,-999,0,0.02
2013-11-23,37,33,25,-100,-100,-100,0,0,100,0.00,40.00,0,-999,0,0.01
2013-11-24,25,20,16,-100,-100,-100,0,0,100,0.00,40.00,0,-999,0,0.00
2013-11-25,26,20,14,-100,-100,-100,0,0,100,0.00,40.00,0,-999,0,0.00
2013-11-26,32,28,25,-100,-100,-100,0,0,100,0.00,40.00,0,-999,0,0.06
2013-11-27,43,38,31,-100,-100,-100,0,0,100,0.00,40.00,0,-999,0,1.82
2013-11-28,34,26,16,-100,-100,-100,0,0,100,0.00,40.00,0,-999,0,0.07
2013-11-29,26,18,9,-100,-100,-100,0,0,100,0.00,40.00,0,-999,0,0.00
2013-11-30,27,16,4,-100,-100,-100,0,0,100,0.00,40.00,0,-999,0,0.00
2013-12-1,36,31,26,-100,-100,-100,0,0,100,0.00,40.00,0,-999,0,0.00
2013-12-2,43,35,32,-100,-100,-100,0,0,100,0.00,40.00,0,-999,0,0.00
2013-12-3,40,33,26,-100,-100,-100,0,0,100,0.00,40.00,0,-999,0,0.00
2013-12-4,41,31,22,-100,-100,-100,0,0,100,0.00,40.00,0,-999,0,0.00
2013-12-5,34,31,24,-100,-100,-100,0,0,100,0.00,40.00,0,-999,0,0.03
2013-12-6,42,37,34,-100,-100,-100,0,0,100,0.00,40.00,0,-999,0,0.12
2013-12-7,35,31,25,-100,-100,-100,0,0,100,0.00,40.00,0,-999,0,0.01
2013-12-8,28,24,19,-100,-100,-100,0,0,100,0.00,40.00,0,-999,0,0.00
2013-12-9,26,25,24,-100,-100,-100,0,0,100,0.00,40.00,0,-999,0,0.08
2013-12-10,32,26,20,-100,-100,-100,0,0,100,0.00,40.00,0,-999,0,0.01
2013-12-11,27,22,13,-100,-100,-100,0,0,100,0.00,40.00,0,-999,0,0.00
2013-12-12,20,11,2,-100,-100,-100,0,0,100,0.00,40.00,0,-999,0,0.00
2013-12-13,23,10,1,-100,-100,-100,0,0,100,0.00,40.00,0,-999,0,0.00
2013-12-14,13,6,-4,-100,-100,-100,0,0,100,0.00,40.00,0,-999,0,0.00
2013-12-15,28,19,10,-100,-100,-100,0,0,100,0.00,40.00,0,-999,0,0.13
2013-12-16,20,14,2,-100,-100,-100,0,0,100,0.00,40.00,0,-999,0,0.01
2013-12-17,12,7,-8,-100,-100,-100,0,0,100,0.00,40.00,0,-999,0,0.00
2013-12-18,29,18,10,-100,-100,-100,0,0,100,0.00,40.00,0,-999,0,0.02
2013-12-19,33,25,16,-100,-100,-100,0,0,100,0.00,40.00,0,-999,0,0.01
2013-12-20,37,32,28,-100,-100,-100,0,0,100,0.00,40.00,0,-999,0,0.00
2013-12-21,40,35,33,-100,-100,-100,0,0,100,0.00,40.00,0,-999,0,0.02
2013-12-22,36,33,30,-100,-100,-100,0,0,100,0.00,40.00,0,-999,0,0.42
2013-12-23,33,31,29,-100,-100,-100,0,0,100,0.00,40.00,0,-999,0,0.21
2013-12-24,33,26,16,-100,-100,-100,0,0,100,0.00,40.00,0,-999,0,0.03
2013-12-25,17,11,4,-100,-100,-100,0,0,100,0.00,40.00,0,-999,0,0.00
2013-12-26,23,17,9,-100,-100,-100,0,0,100,0.00,40.00,0,-999,0,0.06
2013-12-27,31,18,7,-100,-100,-100,0,0,100,0.00,40.00,0,-999,0,0.02
2013-12-28,35,24,7,-100,-100,-100,0,0,100,0.00,40.00,0,-999,0,0.00
2013-12-29,36,30,25,-100,-100,-100,0,0,100,0.00,40.00,0,-999,0,0.09
2013-12-30,33,24,5,-100,-100,-100,0,0,100,0.00,40.00,0,-999,0,0.16
2013-12-31,14,6,-3,-100,-100,-100,0,0,100,0.00,40.00,0,-999,0,0.01
2014-1-1,19,9,-2,-100,-100,-100,0,0,100,0.00,40.00,0,-999,0,0.00
2014-1-2,10,7,2,-100,-100,-100,0,0,100,0.00,40.00,0,-999,0,0.07